Time;durP1;ratioP1;P1;durP2;ratioP2;P2;SDS_P1;SDS_P2;PMS_P1;PMS_P2;Temp;Humidity;BMP_temperature;BMP_pressure;BME280_temperature;BME280_humidity;BME280_pressure;Samples;Min_cycle;Max_cycle;Signal;HPM_P1;HPM_P2
2022/10/27 00:02:19;;;;;;;19.25;8.63;;;;;;;13.27;55.36;100290.44;5051781;28;20021;-69
2022/10/27 00:04:44;;;;;;;16.08;7.93;;;;;;;13.11;55.70;100297.72;5049663;28;20029;-70
2022/10/27 00:07:10;;;;;;;20.63;8.13;;;;;;;13.25;55.16;100289.09;5050851;28;20025;-69
2022/10/27 00:09:35;;;;;;;18.55;8.50;;;;;;;13.31;54.86;100290.56;5050599;28;20045;-70
2022/10/27 00:12:04;;;;;;;17.80;8.27;;;;;;;12.97;55.52;100287.47;5051126;28;20021;-69
2022/10/27 00:14:29;;;;;;;15.50;7.80;;;;;;;12.91;55.27;100292.44;5033067;28;20040;-70
2022/10/27 00:16:55;;;;;;;12.98;7.03;;;;;;;12.47;56.33;100295.22;5051269;28;20025;-69
2022/10/27 00:19:23;;;;;;;15.52;7.07;;;;;;;12.72;55.84;100298.38;5032128;28;20033;-69
2022/10/27 00:21:52;;;;;;;31.70;7.03;;;;;;;13.01;55.01;100291.28;5053154;28;20021;-69
2022/10/27 00:24:18;;;;;;;11.45;6.43;;;;;;;13.25;54.01;100287.09;5055353;28;20029;-69
2022/10/27 00:26:43;;;;;;;11.00;5.53;;;;;;;13.54;53.77;100290.38;5055372;28;20361;-69
2022/10/27 00:29:09;;;;;;;14.48;6.18;;;;;;;13.72;53.31;100285.53;5054855;28;20046;-70
2022/10/27 00:31:35;;;;;;;10.10;6.05;;;;;;;13.89;52.46;100288.28;5053183;28;20061;-70
2022/10/27 00:34:00;;;;;;;12.85;6.53;;;;;;;13.95;51.97;100294.53;5053998;28;20079;-70
2022/10/27 00:36:26;;;;;;;9.38;5.65;;;;;;;13.30;53.55;100295.38;5036814;28;20433;-70
2022/10/27 00:38:56;;;;;;;10.32;5.53;;;;;;;13.50;52.96;100301.47;5054807;28;20017;-69
2022/10/27 00:41:28;;;;;;;13.30;5.63;;;;;;;13.71;52.24;100297.94;5054605;28;20549;-69
2022/10/27 00:43:55;;;;;;;12.40;5.82;;;;;;;13.84;51.86;100298.91;5055018;28;20500;-69
2022/10/27 00:46:39;;;;;;;10.70;4.53;;;;;;;13.44;52.21;100308.44;5037193;28;20024;-69
2022/10/27 00:49:13;;;;;;;8.00;5.22;;;;;;;13.17;53.22;100304.81;5026627;28;20021;-69
2022/10/27 00:51:41;;;;;;;10.23;5.47;;;;;;;13.20;53.20;100302.16;5050020;28;20103;-69
2022/10/27 00:54:08;;;;;;;14.93;4.97;;;;;;;13.04;53.75;100301.88;5035190;28;20514;-69
2022/10/27 00:56:34;;;;;;;5.60;4.25;;;;;;;13.12;53.40;100296.56;5036939;28;20049;-69
2022/10/27 00:59:00;;;;;;;12.50;4.30;;;;;;;13.23;53.32;100303.47;5036742;28;20128;-69
2022/10/27 01:01:26;;;;;;;7.68;4.40;;;;;;;13.26;53.45;100299.19;5054965;28;20017;-69
2022/10/27 01:03:53;;;;;;;5.82;5.18;;;;;;;13.34;53.19;100299.16;5035223;28;20016;-69
2022/10/27 01:06:18;;;;;;;13.57;4.85;;;;;;;13.55;52.60;100294.84;5054852;28;20407;-69
2022/10/27 01:08:44;;;;;;;7.57;4.10;;;;;;;13.39;53.16;100298.16;5037045;28;20120;-69
2022/10/27 01:11:10;;;;;;;6.53;4.20;;;;;;;13.30;53.26;100302.97;5054119;28;20494;-69
2022/10/27 01:13:36;;;;;;;10.40;4.78;;;;;;;13.29;53.61;100299.34;5054800;28;20025;-69
2022/10/27 01:16:20;;;;;;;11.52;4.53;;;;;;;13.54;53.10;100296.84;5054396;28;20553;-69
2022/10/27 01:19:03;;;;;;;5.75;4.32;;;;;;;13.71;52.64;100297.94;5053023;28;20024;-69
2022/10/27 01:21:58;;;;;;;11.45;5.70;;;;;;;13.82;52.11;100306.84;5054638;28;20025;-69
2022/10/27 01:24:51;;;;;;;11.93;4.85;;;;;;;13.72;52.80;100308.03;5036300;28;20098;-69
2022/10/27 01:27:19;;;;;;;9.73;3.67;;;;;;;13.70;52.82;100302.75;5054453;28;20403;-69
2022/10/27 01:30:02;;;;;;;8.05;3.83;;;;;;;13.33;53.54;100307.91;5054243;28;20472;-69
2022/10/27 01:32:27;;;;;;;11.48;5.43;;;;;;;13.17;54.29;100302.81;5053156;28;20521;-69
2022/10/27 01:35:11;;;;;;;7.20;4.25;;;;;;;12.92;54.92;100301.69;5034341;28;20115;-69
2022/10/27 01:37:51;;;;;;;7.93;4.18;;;;;;;12.64;55.88;100304.81;5035658;28;20025;-69
2022/10/27 01:40:29;;;;;;;8.95;4.00;;;;;;;12.50;56.30;100307.78;5053651;28;20082;-69
2022/10/27 01:43:07;;;;;;;10.18;4.47;;;;;;;12.24;57.11;100308.53;5053568;28;20451;-70
2022/10/27 01:45:36;;;;;;;6.78;3.90;;;;;;;12.26;56.83;100306.25;5053047;28;20025;-69
2022/10/27 01:48:05;;;;;;;8.37;4.10;;;;;;;12.26;56.85;100311.88;5052721;28;20020;-69
2022/10/27 01:50:39;;;;;;;8.13;4.80;;;;;;;12.30;56.77;100312.00;5035408;28;20082;-69
2022/10/27 01:53:05;;;;;;;6.68;3.65;;;;;;;12.30;56.61;100317.63;5053295;28;20086;-69
2022/10/27 01:56:02;;;;;;;7.53;3.90;;;;;;;12.07;57.69;100320.53;5053451;28;20460;-69
2022/10/27 01:58:52;;;;;;;12.07;3.97;;;;;;;12.03;57.30;100319.53;5001693;28;20041;-69
2022/10/27 02:01:23;;;;;;;13.13;4.70;;;;;;;12.16;57.08;100326.19;5033281;28;20086;-69
2022/10/27 02:04:00;;;;;;;6.13;4.30;;;;;;;11.78;57.74;100321.88;5016978;28;20094;-69
2022/10/27 02:06:31;;;;;;;9.30;4.55;;;;;;;11.58;58.57;100321.25;5033335;28;20513;-69
2022/10/27 02:09:25;;;;;;;8.35;4.55;;;;;;;11.70;58.07;100329.09;5033116;28;20033;-69
2022/10/27 02:11:54;;;;;;;10.77;4.68;;;;;;;11.59;58.28;100322.94;5024751;28;20049;-69
2022/10/27 02:14:20;;;;;;;12.35;4.57;;;;;;;11.51;58.62;100320.91;5033199;28;20192;-69
2022/10/27 02:16:52;;;;;;;7.13;3.70;;;;;;;11.57;58.76;100325.22;5016562;28;20395;-69
2022/10/27 02:19:34;;;;;;;11.50;4.60;;;;;;;11.50;59.33;100330.47;5050971;28;20108;-69
2022/10/27 02:22:01;;;;;;;8.95;4.10;;;;;;;11.65;58.71;100334.84;5052829;28;20021;-69
2022/10/27 02:24:27;;;;;;;7.22;3.47;;;;;;;11.63;58.52;100337.09;5052799;28;20036;-69
2022/10/27 02:27:00;;;;;;;7.47;4.75;;;;;;;11.78;57.94;100335.88;5034639;28;20040;-69
2022/10/27 02:29:41;;;;;;;9.23;4.38;;;;;;;11.77;58.16;100340.66;5053035;28;20027;-69
2022/10/27 02:32:10;;;;;;;12.38;4.70;;;;;;;11.80;58.34;100353.19;5051571;28;20400;-69
2022/10/27 02:34:37;;;;;;;5.85;3.60;;;;;;;11.56;58.97;100351.56;5051671;28;20037;-70
2022/10/27 02:37:05;;;;;;;8.05;4.63;;;;;;;11.67;58.94;100352.16;5035084;28;20127;-69
2022/10/27 02:39:30;;;;;;;6.82;3.88;;;;;;;11.73;58.64;100350.03;5053191;28;20037;-69
2022/10/27 02:41:56;;;;;;;13.23;4.43;;;;;;;11.80;58.38;100358.81;5034433;28;20086;-70
2022/10/27 02:44:21;;;;;;;16.15;4.43;;;;;;;11.82;58.21;100356.50;5052505;28;20025;-69
2022/10/27 02:46:47;;;;;;;7.00;4.72;;;;;;;11.84;58.07;100361.78;5052981;28;20021;-69
2022/10/27 02:49:12;;;;;;;6.03;3.53;;;;;;;12.04;57.36;100366.88;5051977;28;20024;-69
2022/10/27 02:51:38;;;;;;;7.25;4.15;;;;;;;12.08;57.37;100358.66;5034897;28;20035;-69
2022/10/27 02:54:03;;;;;;;6.88;3.35;;;;;;;11.98;57.30;100362.50;5052097;28;20028;-69
2022/10/27 02:56:28;;;;;;;11.90;3.60;;;;;;;11.86;57.55;100365.09;5034826;28;20399;-69
2022/10/27 02:58:54;;;;;;;9.13;3.25;;;;;;;11.82;58.12;100369.69;5034752;28;20103;-69
2022/10/27 03:01:19;;;;;;;6.68;3.58;;;;;;;11.85;58.11;100378.31;5034770;28;20048;-69
2022/10/27 03:03:45;;;;;;;11.77;4.07;;;;;;;11.89;57.85;100384.09;5051677;28;20039;-69
2022/10/27 03:06:10;;;;;;;9.07;4.35;;;;;;;11.69;58.41;100379.84;5034575;28;20365;-70
2022/10/27 03:08:36;;;;;;;7.85;3.58;;;;;;;11.61;58.53;100381.44;5052517;28;20112;-69
2022/10/27 03:11:01;;;;;;;12.55;4.88;;;;;;;11.65;58.75;100380.47;5051915;28;20053;-69
2022/10/27 03:13:27;;;;;;;11.10;2.90;;;;;;;11.72;58.66;100382.84;5052500;28;20040;-69
2022/10/27 03:15:52;;;;;;;10.13;4.53;;;;;;;11.64;59.00;100378.84;5052423;28;20036;-69
2022/10/27 03:18:17;;;;;;;10.10;4.07;;;;;;;11.90;57.89;100378.16;5051518;28;20545;-69
2022/10/27 03:20:46;;;;;;;9.43;4.20;;;;;;;11.89;58.24;100384.09;5052468;28;20388;-69
2022/10/27 03:23:12;;;;;;;14.13;8.82;;;;;;;11.77;58.29;100385.53;5052375;28;20017;-69
2022/10/27 03:25:42;;;;;;;23.83;9.88;;;;;;;11.74;58.97;100383.34;5033559;28;20120;-69
2022/10/27 03:28:11;;;;;;;17.13;8.05;;;;;;;11.78;59.26;100394.72;5051960;28;20103;-69
2022/10/27 03:30:37;;;;;;;12.88;6.28;;;;;;;11.85;58.75;100388.66;5034158;28;20515;-69
2022/10/27 03:33:03;;;;;;;9.27;5.53;;;;;;;11.50;60.35;100392.09;5051073;28;20025;-69
2022/10/27 03:35:29;;;;;;;12.65;5.13;;;;;;;11.52;60.46;100392.59;5052026;28;20079;-69
2022/10/27 03:37:56;;;;;;;6.35;4.80;;;;;;;11.45;60.22;100386.59;5051971;28;20056;-69
2022/10/27 03:40:23;;;;;;;9.70;5.45;;;;;;;11.44;60.95;100394.19;5033589;28;20021;-69
2022/10/27 03:42:48;;;;;;;8.00;4.85;;;;;;;11.29;61.57;100389.78;5051057;28;20021;-69
2022/10/27 03:45:14;;;;;;;9.63;5.85;;;;;;;11.29;61.52;100387.00;5033507;28;20031;-69
2022/10/27 03:47:40;;;;;;;9.55;5.85;;;;;;;11.20;62.10;100400.94;5049674;28;20059;-69
2022/10/27 03:50:05;;;;;;;6.25;4.40;;;;;;;11.13;62.27;100396.91;5051396;28;20029;-70
2022/10/27 03:52:31;;;;;;;7.97;4.80;;;;;;;11.07;62.32;100397.03;5051430;28;20100;-69
2022/10/27 03:54:57;;;;;;;12.27;4.57;;;;;;;11.16;62.31;100407.47;5033797;28;20078;-69
2022/10/27 03:57:22;;;;;;;12.25;5.25;;;;;;;11.16;61.91;100399.06;5051182;28;20024;-69
2022/10/27 03:59:48;;;;;;;14.48;4.28;;;;;;;11.23;61.29;100400.28;5049371;28;20021;-70
2022/10/27 04:02:13;;;;;;;14.13;4.60;;;;;;;11.29;61.42;100397.38;5050121;28;20029;-69
2022/10/27 04:04:39;;;;;;;17.15;5.03;;;;;;;11.37;61.21;100405.00;5049486;28;20021;-69
2022/10/27 04:07:04;;;;;;;9.10;4.75;;;;;;;11.47;60.45;100413.16;5051789;28;20021;-69
2022/10/27 04:09:30;;;;;;;16.92;4.40;;;;;;;11.41;60.34;100411.66;5051340;28;20128;-69
2022/10/27 04:11:55;;;;;;;10.52;5.43;;;;;;;11.38;60.65;100413.09;5033776;28;20021;-69
2022/10/27 04:14:20;;;;;;;7.18;4.18;;;;;;;11.38;60.38;100423.47;5033638;28;20053;-69
2022/10/27 04:16:50;;;;;;;6.80;4.30;;;;;;;11.50;60.75;100425.72;5031571;28;20029;-70
2022/10/27 04:19:17;;;;;;;13.80;4.78;;;;;;;11.66;60.14;100428.97;5033810;28;20114;-69
2022/10/27 04:21:43;;;;;;;12.13;5.15;;;;;;;11.90;59.28;100423.00;5050369;28;20069;-69
2022/10/27 04:24:08;;;;;;;9.88;4.78;;;;;;;12.15;58.50;100431.91;5048472;28;20511;-70
2022/10/27 04:26:34;;;;;;;14.00;4.75;;;;;;;12.29;57.86;100433.78;5050830;28;20025;-68
2022/10/27 04:28:59;;;;;;;11.65;3.95;;;;;;;12.18;58.06;100438.84;5048074;28;20072;-69
2022/10/27 04:31:25;;;;;;;6.05;3.72;;;;;;;12.08;58.01;100431.56;5048981;28;20032;-70
2022/10/27 04:33:50;;;;;;;9.32;3.85;;;;;;;12.13;58.07;100431.41;5051381;28;20506;-68
2022/10/27 04:36:15;;;;;;;21.10;4.93;;;;;;;12.13;57.79;100431.41;5051371;28;20491;-69
2022/10/27 04:38:41;;;;;;;17.58;4.55;;;;;;;12.21;57.95;100439.03;5050868;28;20480;-71
2022/10/27 04:41:06;;;;;;;14.05;3.67;;;;;;;11.79;58.66;100433.66;5050013;28;20083;-70
2022/10/27 04:43:32;;;;;;;10.18;4.38;;;;;;;11.44;60.14;100439.03;5049491;28;20094;-70
2022/10/27 04:45:57;;;;;;;8.40;4.20;;;;;;;11.45;60.47;100428.63;5029787;28;20025;-70
2022/10/27 04:48:23;;;;;;;10.13;4.13;;;;;;;11.47;60.43;100438.38;5031403;28;20028;-69
2022/10/27 04:50:48;;;;;;;9.30;3.55;;;;;;;11.43;60.53;100447.72;5022792;28;20031;-70
2022/10/27 04:53:14;;;;;;;11.90;5.07;;;;;;;11.48;60.54;100437.22;5050891;28;20032;-69
2022/10/27 04:55:39;;;;;;;16.90;6.10;;;;;;;11.61;60.29;100445.88;5048368;28;20031;-69
2022/10/27 04:58:05;;;;;;;13.60;4.80;;;;;;;11.74;59.56;100446.97;5050247;28;20079;-69
2022/10/27 05:00:30;;;;;;;8.18;5.03;;;;;;;11.74;59.59;100445.00;5044857;28;20025;-69
2022/10/27 05:02:58;;;;;;;9.00;4.88;;;;;;;11.71;59.57;100448.44;5045744;28;20102;-74
2022/10/27 05:05:25;;;;;;;17.95;4.57;;;;;;;11.88;59.28;100453.34;5048675;28;20036;-68
2022/10/27 05:07:55;;;;;;;44.15;6.68;;;;;;;11.90;58.98;100455.84;5050071;28;20032;-69
2022/10/27 05:10:21;;;;;;;14.70;5.30;;;;;;;11.77;59.49;100449.13;5052012;28;20061;-71
2022/10/27 05:12:46;;;;;;;30.30;8.25;;;;;;;11.65;59.85;100456.16;5051986;28;20076;-68
2022/10/27 05:15:11;;;;;;;32.72;7.03;;;;;;;11.65;60.65;100458.13;5048855;28;20032;-71
2022/10/27 05:17:37;;;;;;;15.80;5.63;;;;;;;11.58;60.77;100461.34;5051588;28;20025;-69
2022/10/27 05:20:03;;;;;;;14.93;4.80;;;;;;;11.46;60.66;100461.94;5051194;28;20029;-69
2022/10/27 05:22:29;;;;;;;24.80;5.45;;;;;;;11.45;61.21;100471.50;5048211;28;20027;-69
2022/10/27 05:24:54;;;;;;;17.25;5.60;;;;;;;11.44;60.96;100469.00;5052335;28;20483;-69
2022/10/27 05:27:20;;;;;;;18.63;6.82;;;;;;;11.52;61.33;100468.25;5050455;28;20040;-69
2022/10/27 05:29:45;;;;;;;12.45;6.15;;;;;;;11.43;61.54;100472.94;5052002;28;20029;-69
2022/10/27 05:32:11;;;;;;;14.20;5.93;;;;;;;11.44;61.04;100474.59;5052427;28;20345;-69
2022/10/27 05:34:36;;;;;;;8.52;5.78;;;;;;;11.53;61.21;100481.09;5052250;28;20043;-69
2022/10/27 05:37:02;;;;;;;12.90;5.15;;;;;;;11.54;61.08;100482.75;5047377;28;20021;-69
2022/10/27 05:39:27;;;;;;;10.07;4.55;;;;;;;11.59;60.76;100490.22;5037736;28;20048;-69
2022/10/27 05:41:53;;;;;;;11.35;5.97;;;;;;;11.55;61.01;100487.22;5049744;28;20048;-69
2022/10/27 05:44:22;;;;;;;8.95;4.97;;;;;;;11.51;61.12;100497.41;5045853;28;20040;-69
2022/10/27 05:46:48;;;;;;;10.07;5.43;;;;;;;11.66;60.78;100507.44;5048004;28;20081;-69
2022/10/27 05:49:14;;;;;;;9.57;3.85;;;;;;;11.68;61.06;100512.69;5045306;28;20652;-69
2022/10/27 05:51:39;;;;;;;8.75;3.90;;;;;;;11.79;60.73;100502.91;5049266;28;20037;-69
2022/10/27 05:54:05;;;;;;;11.57;4.78;;;;;;;11.85;61.04;100504.44;5052318;28;20032;-69
2022/10/27 05:56:30;;;;;;;8.75;4.30;;;;;;;11.90;60.68;100521.13;5035076;28;20040;-72
2022/10/27 05:58:56;;;;;;;16.08;5.55;;;;;;;12.15;60.18;100523.66;5041786;28;20143;-69
2022/10/27 06:01:21;;;;;;;25.98;6.63;;;;;;;12.07;60.85;100522.44;5048018;28;20029;-70
2022/10/27 06:03:47;;;;;;;14.95;5.72;;;;;;;12.37;60.00;100528.38;5051466;28;20083;-69
2022/10/27 06:06:12;;;;;;;29.38;6.68;;;;;;;12.45;59.30;100527.63;5051606;28;20048;-69
2022/10/27 06:08:38;;;;;;;20.20;5.57;;;;;;;12.35;59.63;100537.13;5050239;28;20119;-69
2022/10/27 06:11:03;;;;;;;13.43;4.78;;;;;;;12.32;59.80;100528.53;5051355;28;20048;-68
2022/10/27 06:13:29;;;;;;;12.98;5.97;;;;;;;12.47;59.78;100536.53;5049450;28;20033;-69
2022/10/27 06:15:54;;;;;;;19.77;7.30;;;;;;;12.83;59.32;100534.69;5040253;28;20686;-68
2022/10/27 06:18:20;;;;;;;29.52;14.68;;;;;;;13.05;58.12;100536.63;5034146;28;20037;-69
2022/10/27 06:20:45;;;;;;;43.65;19.92;;;;;;;13.48;57.75;100548.28;5050785;28;20463;-71
2022/10/27 06:23:11;;;;;;;13.70;7.45;;;;;;;13.63;56.01;100538.56;5050677;28;20028;-71
2022/10/27 06:25:37;;;;;;;12.05;4.88;;;;;;;13.82;55.51;100537.41;5034153;28;20079;-69
2022/10/27 06:28:02;;;;;;;11.30;5.10;;;;;;;14.00;55.00;100538.22;5052114;28;20108;-68
2022/10/27 06:30:28;;;;;;;11.82;5.18;;;;;;;14.09;54.87;100538.22;5048800;28;20114;-68
2022/10/27 06:32:53;;;;;;;15.23;5.95;;;;;;;14.21;54.98;100541.19;5046192;28;20112;-67
2022/10/27 06:35:19;;;;;;;14.25;5.40;;;;;;;14.09;54.84;100536.22;5032969;28;20400;-68
2022/10/27 06:37:45;;;;;;;21.02;5.28;;;;;;;14.40;54.12;100534.34;5051013;28;20025;-68
2022/10/27 06:40:15;;;;;;;16.55;4.30;;;;;;;14.25;53.89;100544.16;5052064;28;20074;-67
2022/10/27 06:42:40;;;;;;;13.70;5.47;;;;;;;14.29;54.01;100536.69;5051514;28;20104;-68
2022/10/27 06:45:08;;;;;;;16.67;7.28;;;;;;;14.25;54.16;100532.91;5033440;28;20060;-67
2022/10/27 06:47:33;;;;;;;23.00;6.50;;;;;;;14.52;53.93;100533.66;5045813;28;20029;-68
2022/10/27 06:49:59;;;;;;;11.57;6.20;;;;;;;14.68;53.67;100546.00;5045743;28;20036;-70
2022/10/27 06:52:25;;;;;;;11.55;5.07;;;;;;;14.92;52.28;100541.78;5049115;28;20032;-69
2022/10/27 06:54:50;;;;;;;14.25;4.90;;;;;;;14.79;52.37;100540.88;5047389;28;20095;-68
2022/10/27 06:57:16;;;;;;;13.73;4.43;;;;;;;14.71;52.13;100545.31;5033755;28;20033;-69
2022/10/27 06:59:41;;;;;;;12.02;4.05;;;;;;;14.80;52.25;100556.59;5052399;28;20052;-69
2022/10/27 07:02:10;;;;;;;12.05;4.03;;;;;;;14.63;52.72;100556.63;5026071;28;20020;-69
2022/10/27 07:04:36;;;;;;;11.38;3.67;;;;;;;14.71;53.35;100562.22;5033585;28;20040;-69
2022/10/27 07:07:04;;;;;;;12.18;5.50;;;;;;;14.75;53.30;100565.22;5049388;28;20029;-69
2022/10/27 07:09:30;;;;;;;11.63;4.68;;;;;;;14.89;52.82;100562.19;5049767;28;20040;-69
2022/10/27 07:11:55;;;;;;;11.93;4.75;;;;;;;14.68;52.83;100560.09;5050044;28;20091;-69
2022/10/27 07:14:21;;;;;;;20.70;5.25;;;;;;;14.44;53.53;100569.09;5051110;28;20372;-70
2022/10/27 07:16:46;;;;;;;16.15;5.47;;;;;;;14.62;53.22;100569.88;5048919;28;20503;-69
2022/10/27 07:19:11;;;;;;;12.13;4.80;;;;;;;14.49;53.34;100577.38;5053789;28;20396;-70
2022/10/27 07:21:37;;;;;;;8.95;4.65;;;;;;;14.27;53.59;100573.59;5051554;28;20106;-70
2022/10/27 07:24:03;;;;;;;15.38;5.80;;;;;;;14.13;53.94;100575.75;5050996;28;20133;-70
2022/10/27 07:26:28;;;;;;;10.20;4.18;;;;;;;13.87;54.98;100571.78;5051031;28;20101;-69
2022/10/27 07:28:54;;;;;;;21.70;5.00;;;;;;;14.03;55.07;100577.75;5050648;28;20033;-70
2022/10/27 07:31:19;;;;;;;11.40;4.35;;;;;;;14.01;54.90;100585.69;5032235;28;20041;-69
2022/10/27 07:33:45;;;;;;;16.40;4.88;;;;;;;14.01;54.61;100582.88;5050687;28;20029;-70
2022/10/27 07:36:10;;;;;;;16.58;5.55;;;;;;;14.00;54.34;100595.28;5050088;28;20487;-70
2022/10/27 07:38:37;;;;;;;11.18;5.45;;;;;;;13.97;54.67;100589.50;5051446;28;20025;-70
2022/10/27 07:41:02;;;;;;;13.60;5.55;;;;;;;13.98;54.74;100591.16;5051536;28;20063;-69
2022/10/27 07:43:28;;;;;;;13.63;5.90;;;;;;;14.02;54.61;100594.97;5048722;28;20487;-70
2022/10/27 07:45:53;;;;;;;21.08;6.32;;;;;;;13.98;54.79;100591.16;5049881;28;20031;-70
2022/10/27 07:48:18;;;;;;;28.02;6.60;;;;;;;13.95;54.81;100591.81;5030869;28;20043;-69
2022/10/27 07:50:44;;;;;;;19.48;6.85;;;;;;;14.03;54.82;100597.44;5032962;28;20032;-70
2022/10/27 07:53:11;;;;;;;22.10;7.43;;;;;;;14.17;54.34;100588.00;5049256;28;20116;-70
2022/10/27 07:55:36;;;;;;;68.43;9.82;;;;;;;14.29;53.96;100592.97;5050627;28;20060;-71
2022/10/27 07:58:09;;;;;;;28.33;7.28;;;;;;;14.31;54.06;100590.63;5046664;28;20063;-70
2022/10/27 08:00:37;;;;;;;24.27;7.13;;;;;;;14.36;53.88;100590.47;5049996;28;20029;-70
2022/10/27 08:03:05;;;;;;;17.35;6.45;;;;;;;14.45;53.86;100590.47;5042840;28;20083;-69
2022/10/27 08:05:33;;;;;;;35.63;6.55;;;;;;;14.65;53.09;100590.91;5051614;28;20503;-71
2022/10/27 08:08:02;;;;;;;17.35;5.45;;;;;;;15.07;52.29;100591.13;5033108;28;20036;-69
2022/10/27 08:10:29;;;;;;;19.20;6.15;;;;;;;15.08;51.95;100595.59;5049792;28;20091;-70
2022/10/27 08:12:54;;;;;;;15.90;6.15;;;;;;;15.10;52.31;100595.25;5041875;28;20543;-69
2022/10/27 08:15:20;;;;;;;21.13;6.45;;;;;;;15.10;51.63;100595.25;5031353;28;20071;-68
2022/10/27 08:17:53;;;;;;;10.80;6.20;;;;;;;15.24;51.20;100595.00;5030901;28;20021;-67
2022/10/27 08:20:19;;;;;;;22.08;8.82;;;;;;;15.48;50.97;100582.28;5013224;28;20052;-68
2022/10/27 08:22:44;;;;;;;12.98;6.22;;;;;;;15.73;50.81;100586.09;5044220;28;20108;-68
2022/10/27 08:25:10;;;;;;;15.32;6.47;;;;;;;16.01;49.95;100591.22;5031109;28;20037;-68
2022/10/27 08:27:35;;;;;;;17.50;6.63;;;;;;;16.14;49.87;100592.91;5050337;28;20035;-68
2022/10/27 08:30:01;;;;;;;21.60;6.97;;;;;;;16.49;49.38;100586.13;5050516;28;20554;-68
2022/10/27 08:32:26;;;;;;;16.40;6.63;;;;;;;16.86;47.95;100581.72;5050230;28;20025;-67
2022/10/27 08:34:52;;;;;;;16.02;6.55;;;;;;;17.26;46.99;100587.56;5050584;28;20025;-68
2022/10/27 08:37:17;;;;;;;12.68;6.13;;;;;;;17.54;46.33;100581.16;5032353;28;20028;-67
2022/10/27 08:39:43;;;;;;;9.80;6.10;;;;;;;17.87;45.93;100584.97;5047586;28;20025;-68
2022/10/27 08:42:27;;;;;;;13.30;5.68;;;;;;;18.12;45.74;100584.13;5045301;28;20019;-68
2022/10/27 08:45:02;;;;;;;10.70;5.25;;;;;;;18.33;45.41;100584.72;5035824;28;20036;-68
2022/10/27 08:47:27;;;;;;;16.08;5.40;;;;;;;18.71;45.24;100573.22;5021918;28;20338;-71
2022/10/27 08:50:11;;;;;;;15.07;5.80;;;;;;;18.87;44.22;100579.69;5053603;28;20487;-68
2022/10/27 08:52:43;;;;;;;11.05;4.45;;;;;;;18.87;43.83;100582.53;5033583;28;20172;-66
2022/10/27 08:55:11;;;;;;;12.23;4.22;;;;;;;19.10;43.30;100576.25;5051891;28;20056;-69
2022/10/27 08:57:41;;;;;;;6.05;4.22;;;;;;;19.22;42.84;100561.97;5035601;28;20091;-68
2022/10/27 09:00:14;;;;;;;8.05;4.20;;;;;;;19.20;43.12;100566.38;5033887;28;20016;-68
2022/10/27 09:03:16;;;;;;;16.75;4.13;;;;;;;19.61;42.87;100566.94;5037682;28;20057;-68
2022/10/27 09:06:23;;;;;;;7.45;4.10;;;;;;;20.14;41.17;100573.34;5023679;28;20449;-69
2022/10/27 09:09:29;;;;;;;6.55;3.92;;;;;;;20.19;40.76;100561.69;4995275;28;20041;-69
2022/10/27 09:12:01;;;;;;;12.75;4.78;;;;;;;19.98;40.81;100554.38;5033773;28;20091;-69
2022/10/27 09:14:49;;;;;;;7.28;3.60;;;;;;;19.75;41.24;100559.94;5034577;28;20036;-67
2022/10/27 09:17:28;;;;;;;10.45;3.15;;;;;;;19.78;41.95;100560.00;5049020;28;20475;-67
2022/10/27 09:20:07;;;;;;;8.25;3.40;;;;;;;20.32;41.38;100554.66;5049007;28;20033;-71
2022/10/27 09:22:37;;;;;;;9.85;3.67;;;;;;;20.50;40.84;100554.16;5045628;28;20025;-65
2022/10/27 09:25:05;;;;;;;8.25;4.28;;;;;;;20.25;40.99;100560.19;5048766;28;20024;-65
2022/10/27 09:27:32;;;;;;;9.30;4.25;;;;;;;20.19;40.80;100550.34;5035014;28;20032;-65
2022/10/27 09:30:01;;;;;;;8.38;3.97;;;;;;;20.27;41.29;100546.44;5053555;28;20032;-65
2022/10/27 09:32:26;;;;;;;12.73;4.53;;;;;;;20.65;40.26;100537.41;5052585;28;20075;-65
2022/10/27 09:35:13;;;;;;;9.55;4.15;;;;;;;20.84;40.16;100540.19;5034409;28;20033;-66
2022/10/27 09:37:40;;;;;;;7.10;3.75;;;;;;;20.74;40.00;100537.94;5053193;28;20046;-67
2022/10/27 09:40:12;;;;;;;6.10;3.40;;;;;;;19.97;40.94;100534.84;5051384;28;20047;-65
2022/10/27 09:42:39;;;;;;;8.70;3.45;;;;;;;20.13;40.92;100540.47;5049475;28;20013;-66
2022/10/27 09:45:17;;;;;;;6.90;3.40;;;;;;;20.19;40.64;100536.13;5033990;28;20028;-65
2022/10/27 09:47:46;;;;;;;11.13;3.40;;;;;;;20.48;40.22;100531.81;5050511;28;20021;-65
2022/10/27 09:50:35;;;;;;;7.60;3.45;;;;;;;20.57;39.91;100525.88;5052203;28;20083;-67
2022/10/27 09:53:01;;;;;;;5.97;2.97;;;;;;;20.56;39.78;100524.25;5051845;28;20036;-65
2022/10/27 09:55:51;;;;;;;10.27;4.40;;;;;;;20.10;40.63;100518.50;5051545;28;20020;-65
2022/10/27 09:58:18;;;;;;;7.87;4.20;;;;;;;20.80;39.72;100522.22;5033894;28;20027;-65
2022/10/27 10:00:44;;;;;;;7.50;3.58;;;;;;;21.31;38.70;100525.91;5048704;28;20979;-65
2022/10/27 10:03:20;;;;;;;6.72;3.78;;;;;;;21.39;38.63;100526.81;5052827;28;20028;-64
2022/10/27 10:06:00;;;;;;;11.48;3.50;;;;;;;21.44;38.66;100523.66;5034599;28;20016;-65
2022/10/27 10:08:28;;;;;;;9.35;4.22;;;;;;;21.40;38.60;100525.63;5033914;28;20024;-69
2022/10/27 10:11:04;;;;;;;8.20;3.55;;;;;;;21.56;38.54;100516.91;5033050;28;20041;-67
2022/10/27 10:13:32;;;;;;;11.88;4.63;;;;;;;21.76;37.43;100519.66;5049343;28;20029;-66
2022/10/27 10:16:15;;;;;;;10.38;3.92;;;;;;;21.78;37.33;100522.94;5030783;28;20515;-67
2022/10/27 10:18:45;;;;;;;11.63;4.22;;;;;;;21.84;37.30;100522.19;5043183;28;20033;-67
2022/10/27 10:21:13;;;;;;;8.20;4.13;;;;;;;21.90;37.24;100511.28;5031696;28;20453;-67
2022/10/27 10:23:47;;;;;;;5.90;3.90;;;;;;;22.17;36.49;100514.03;5050444;28;20025;-67
2022/10/27 10:26:27;;;;;;;8.88;3.53;;;;;;;22.15;36.23;100513.59;5050075;28;20521;-67
2022/10/27 10:29:03;;;;;;;6.53;3.67;;;;;;;22.31;36.57;100504.84;5050807;28;20021;-66
2022/10/27 10:31:30;;;;;;;8.20;3.28;;;;;;;22.34;36.05;100509.75;5049401;28;20368;-66
2022/10/27 10:34:03;;;;;;;12.77;3.60;;;;;;;22.31;36.00;100510.53;5031538;28;20029;-67
2022/10/27 10:36:35;;;;;;;9.02;5.00;;;;;;;22.49;36.43;100505.03;5048167;28;20052;-68
2022/10/27 10:39:02;;;;;;;5.07;3.97;;;;;;;22.55;35.46;100509.16;5051063;28;20557;-67
2022/10/27 10:41:28;;;;;;;8.13;3.75;;;;;;;22.56;35.42;100505.13;5050550;28;20021;-67
2022/10/27 10:44:16;;;;;;;7.07;3.22;;;;;;;22.62;35.53;100504.75;5048710;28;20056;-67
2022/10/27 10:47:02;;;;;;;8.70;4.00;;;;;;;22.70;35.95;100503.63;5050771;28;20400;-67
2022/10/27 10:49:33;;;;;;;14.57;4.03;;;;;;;22.90;35.52;100497.66;5032324;28;20047;-67
2022/10/27 10:52:02;;;;;;;7.47;3.65;;;;;;;22.94;34.65;100484.25;5048269;28;20024;-67
2022/10/27 10:54:32;;;;;;;13.15;4.15;;;;;;;22.53;35.79;100494.50;5026577;28;20025;-67
2022/10/27 10:56:58;;;;;;;6.32;3.50;;;;;;;22.65;34.87;100478.31;5049748;28;20057;-66
2022/10/27 10:59:30;;;;;;;18.08;3.25;;;;;;;23.00;35.17;100491.22;5048245;28;20077;-66
2022/10/27 11:02:13;;;;;;;7.90;3.47;;;;;;;23.00;34.59;100485.50;5044684;28;20028;-66
2022/10/27 11:04:43;;;;;;;12.93;4.45;;;;;;;22.56;35.96;100487.19;5049304;28;20035;-66
2022/10/27 11:07:30;;;;;;;9.68;3.97;;;;;;;22.79;35.23;100478.41;5049452;28;20028;-67
2022/10/27 11:10:19;;;;;;;9.80;3.47;;;;;;;22.72;35.42;100473.47;5029950;28;20098;-66
2022/10/27 11:13:05;;;;;;;5.53;3.35;;;;;;;23.15;35.52;100480.72;5035925;28;20044;-66
2022/10/27 11:15:49;;;;;;;6.20;3.40;;;;;;;23.13;35.09;100475.41;5042704;28;20028;-67
2022/10/27 11:18:26;;;;;;;8.80;3.70;;;;;;;23.13;34.95;100463.19;5046661;28;20116;-66
2022/10/27 11:21:04;;;;;;;6.28;3.55;;;;;;;23.10;34.92;100459.09;5029931;28;20028;-66
2022/10/27 11:23:41;;;;;;;5.03;3.20;;;;;;;23.15;35.11;100466.47;5040575;28;20032;-66
2022/10/27 11:26:09;;;;;;;7.60;3.72;;;;;;;23.32;35.00;100461.28;5049535;28;20429;-66
2022/10/27 11:29:00;;;;;;;9.23;3.53;;;;;;;23.52;34.73;100462.63;5054541;28;20029;-66
2022/10/27 11:31:47;;;;;;;7.25;3.17;;;;;;;23.43;34.51;100453.59;5043406;28;20048;-67